Time;durP1;ratioP1;P1;durP2;ratioP2;P2;SDS_P1;SDS_P2;PMS_P1;PMS_P2;Temp;Humidity;BMP_temperature;BMP_pressure;BME280_temperature;BME280_humidity;BME280_pressure;Samples;Min_cycle;Max_cycle;Signal;HPM_P1;HPM_P2
2023/04/11 00:02:09;;;;;;;4.70;3.03;;;8.30;99.90;;;;;;4998731;28;20859;-95
2023/04/11 00:04:42;;;;;;;2.90;2.60;;;8.40;99.90;;;;;;4980378;28;20208;-96
2023/04/11 00:07:14;;;;;;;3.13;2.50;;;8.40;99.90;;;;;;4996304;28;20228;-91
2023/04/11 00:09:45;;;;;;;3.73;2.50;;;8.40;99.90;;;;;;5003321;28;20198;-92
2023/04/11 00:12:19;;;;;;;3.50;2.50;;;8.30;99.90;;;;;;4994137;28;20260;-93
2023/04/11 00:14:52;;;;;;;3.17;2.43;;;8.30;99.90;;;;;;4987489;28;20203;-95
2023/04/11 00:17:27;;;;;;;3.10;2.43;;;8.30;99.90;;;;;;5001559;28;20284;-93
2023/04/11 00:20:06;;;;;;;4.77;2.80;;;8.20;99.90;;;;;;5008911;28;20227;-94
2023/04/11 00:22:39;;;;;;;3.97;2.20;;;8.10;99.90;;;;;;4998250;28;20264;-91
2023/04/11 00:25:11;;;;;;;3.37;2.20;;;8.10;99.90;;;;;;4994579;28;20242;-95
2023/04/11 00:27:45;;;;;;;2.47;1.90;;;8.10;99.90;;;;;;4985739;28;20212;-93
2023/04/11 00:30:16;;;;;;;1.47;1.37;;;8.10;99.90;;;;;;4999150;28;20221;-96
2023/04/11 00:32:50;;;;;;;1.53;1.30;;;8.10;99.90;;;;;;4999190;28;20206;-96
2023/04/11 00:35:22;;;;;;;1.73;1.30;;;8.00;99.90;;;;;;5004065;28;20213;-93
2023/04/11 00:37:55;;;;;;;2.37;1.50;;;8.10;99.90;;;;;;4990015;28;20230;-96
2023/04/11 00:40:27;;;;;;;4.57;1.50;;;8.10;99.90;;;;;;5002174;28;20248;-96
2023/04/11 00:43:02;;;;;;;1.63;1.47;;;8.10;99.90;;;;;;4991879;28;20265;-93
2023/04/11 00:45:34;;;;;;;1.43;1.27;;;8.10;99.90;;;;;;5004643;28;20628;-92
2023/04/11 00:48:06;;;;;;;2.70;1.37;;;8.10;99.90;;;;;;4991555;28;20211;-93
2023/04/11 00:50:41;;;;;;;2.70;1.30;;;8.10;99.90;;;;;;4995049;28;20240;-95
2023/04/11 00:53:17;;;;;;;2.80;1.90;;;8.10;99.90;;;;;;5023066;28;20237;-96
2023/04/11 00:55:55;;;;;;;2.37;1.50;;;8.00;99.90;;;;;;5008993;28;20205;-95
2023/04/11 00:58:29;;;;;;;2.10;1.70;;;8.00;99.90;;;;;;5003103;28;20234;-95
2023/04/11 01:01:00;;;;;;;1.80;1.40;;;7.90;99.90;;;;;;5009767;28;20206;-84
2023/04/11 01:03:33;;;;;;;2.63;1.50;;;7.90;99.90;;;;;;4993016;28;20582;-89
2023/04/11 01:06:06;;;;;;;3.43;1.70;;;7.90;99.90;;;;;;4993568;28;20213;-88
2023/04/11 01:08:39;;;;;;;1.60;1.50;;;8.00;99.90;;;;;;4985862;28;20218;-87
2023/04/11 01:11:11;;;;;;;2.73;1.53;;;8.10;99.90;;;;;;4998020;28;20203;-88
2023/04/11 01:13:44;;;;;;;2.43;1.60;;;8.00;99.90;;;;;;4995966;28;20282;-88
2023/04/11 01:16:20;;;;;;;4.07;1.73;;;8.10;99.90;;;;;;5000088;28;20225;-89
2023/04/11 01:18:52;;;;;;;2.10;1.57;;;8.00;99.90;;;;;;4997026;28;20241;-89
2023/04/11 01:21:25;;;;;;;4.00;1.60;;;8.00;99.90;;;;;;5019019;28;20193;-88
2023/04/11 01:24:02;;;;;;;1.93;1.70;;;7.90;99.90;;;;;;5017453;28;20203;-88
2023/04/11 01:26:34;;;;;;;2.40;1.70;;;7.80;99.90;;;;;;5006055;28;20216;-88
2023/04/11 01:29:06;;;;;;;2.47;1.47;;;7.80;99.90;;;;;;4990317;28;20215;-88
2023/04/11 01:31:38;;;;;;;2.33;1.60;;;7.80;99.90;;;;;;4985375;28;20660;-88
2023/04/11 01:34:13;;;;;;;3.40;1.87;;;7.80;99.90;;;;;;4985821;28;20215;-89
2023/04/11 01:36:45;;;;;;;2.27;1.60;;;7.70;99.90;;;;;;4979768;28;20210;-89
2023/04/11 01:39:19;;;;;;;2.77;1.70;;;7.70;99.90;;;;;;4976874;28;20707;-89
2023/04/11 01:41:52;;;;;;;2.90;2.00;;;7.70;99.90;;;;;;4980888;28;20202;-89
2023/04/11 01:44:24;;;;;;;3.37;2.00;;;7.70;99.90;;;;;;4996195;28;20302;-89
2023/04/11 01:46:56;;;;;;;3.20;2.20;;;7.70;99.90;;;;;;4997512;28;20215;-87
2023/04/11 01:49:27;;;;;;;2.50;2.30;;;7.70;99.90;;;;;;5012308;28;20269;-88
2023/04/11 01:51:58;;;;;;;3.37;2.53;;;7.80;99.90;;;;;;4996469;28;20636;-88
2023/04/11 01:54:31;;;;;;;3.57;2.43;;;7.70;99.90;;;;;;5005052;28;20260;-88
2023/04/11 01:57:02;;;;;;;2.00;1.40;;;7.70;99.90;;;;;;4986620;28;21138;-88
2023/04/11 01:59:34;;;;;;;2.73;2.13;;;7.70;99.90;;;;;;4989987;28;20202;-88
2023/04/11 02:02:06;;;;;;;2.43;1.77;;;7.60;99.90;;;;;;4991799;28;20660;-88
2023/04/11 02:04:37;;;;;;;2.27;1.90;;;7.60;99.90;;;;;;4991576;28;20202;-88
2023/04/11 02:07:08;;;;;;;2.93;2.37;;;7.50;99.90;;;;;;4987704;28;20238;-89
2023/04/11 02:09:43;;;;;;;3.50;2.07;;;7.60;99.90;;;;;;4977272;28;20203;-88
2023/04/11 02:12:16;;;;;;;3.57;2.40;;;7.60;99.90;;;;;;4981760;28;20206;-87
2023/04/11 02:14:48;;;;;;;3.53;3.00;;;7.60;99.90;;;;;;4984981;28;20674;-89
2023/04/11 02:17:21;;;;;;;4.83;2.80;;;7.70;99.90;;;;;;4983812;28;20656;-88
2023/04/11 02:19:53;;;;;;;3.43;1.80;;;7.60;99.90;;;;;;4983033;28;20203;-89
2023/04/11 02:22:24;;;;;;;2.37;2.07;;;7.50;99.90;;;;;;5003091;28;20643;-87
2023/04/11 02:24:58;;;;;;;3.30;2.37;;;7.50;99.90;;;;;;4992113;28;20266;-88
2023/04/11 02:27:30;;;;;;;2.60;1.80;;;7.40;99.90;;;;;;4991598;28;20640;-88
2023/04/11 02:30:04;;;;;;;1.80;1.63;;;7.40;99.90;;;;;;4991801;28;20206;-89
2023/04/11 02:32:36;;;;;;;2.57;1.10;;;7.40;99.90;;;;;;4985934;28;20260;-89
2023/04/11 02:35:08;;;;;;;2.47;1.47;;;7.40;99.90;;;;;;4987247;28;20296;-88
2023/04/11 02:37:39;;;;;;;2.03;1.10;;;7.40;99.90;;;;;;4993855;28;20337;-88
2023/04/11 02:40:13;;;;;;;1.40;1.30;;;7.50;99.90;;;;;;4998739;28;20247;-88
2023/04/11 02:42:45;;;;;;;2.70;1.37;;;7.40;99.90;;;;;;4987034;28;20210;-88
2023/04/11 02:45:16;;;;;;;2.87;1.40;;;7.40;99.90;;;;;;5000334;28;20960;-87
2023/04/11 02:47:47;;;;;;;2.90;1.20;;;7.40;99.90;;;;;;4985969;28;20215;-87
2023/04/11 02:50:19;;;;;;;1.87;1.20;;;7.30;99.90;;;;;;4993330;28;20249;-89
2023/04/11 02:52:50;;;;;;;1.30;1.07;;;7.20;99.90;;;;;;4980402;28;20210;-87
2023/04/11 02:55:24;;;;;;;1.93;1.13;;;7.20;99.90;;;;;;4979922;28;20207;-87
2023/04/11 02:57:55;;;;;;;1.47;1.13;;;7.20;99.90;;;;;;4991501;28;20234;-88
2023/04/11 03:00:26;;;;;;;2.10;1.10;;;7.20;99.90;;;;;;4992478;28;20206;-87
2023/04/11 03:02:58;;;;;;;1.70;1.23;;;7.20;99.90;;;;;;4980955;28;20214;-87
2023/04/11 03:05:29;;;;;;;1.63;1.10;;;7.10;99.90;;;;;;4985525;28;20253;-86
2023/04/11 03:08:00;;;;;;;4.43;1.60;;;7.00;99.90;;;;;;4980008;28;20222;-87
2023/04/11 03:10:33;;;;;;;2.43;1.13;;;7.00;99.90;;;;;;4975901;28;20203;-88
2023/04/11 03:13:05;;;;;;;1.43;1.20;;;7.10;99.90;;;;;;4975327;28;20206;-87
2023/04/11 03:15:38;;;;;;;2.17;1.60;;;7.00;99.90;;;;;;4989186;28;20210;-88
2023/04/11 03:18:10;;;;;;;2.23;2.03;;;7.00;99.90;;;;;;4991868;28;20234;-87
2023/04/11 03:20:41;;;;;;;2.83;2.03;;;7.00;99.90;;;;;;4976829;28;20652;-88
2023/04/11 03:23:12;;;;;;;2.17;1.97;;;7.00;99.90;;;;;;4990226;28;20225;-88
2023/04/11 03:25:46;;;;;;;2.40;2.20;;;7.00;99.90;;;;;;4985007;28;20206;-88
2023/04/11 03:28:18;;;;;;;2.40;1.97;;;6.90;99.90;;;;;;4989149;28;20214;-87
2023/04/11 03:30:50;;;;;;;2.30;1.80;;;6.90;99.90;;;;;;4974113;28;20261;-87
2023/04/11 03:33:22;;;;;;;2.57;1.60;;;6.90;99.90;;;;;;4980886;28;20214;-88
2023/04/11 03:35:53;;;;;;;4.80;1.40;;;6.90;99.90;;;;;;4981519;28;20211;-88
2023/04/11 03:38:25;;;;;;;1.60;1.50;;;6.90;99.90;;;;;;4992507;28;20240;-88
2023/04/11 03:40:58;;;;;;;2.13;1.83;;;7.00;99.90;;;;;;4986518;28;20678;-87
2023/04/11 03:43:30;;;;;;;1.87;1.73;;;7.00;99.90;;;;;;4992840;28;20206;-87
2023/04/11 03:46:01;;;;;;;2.40;1.90;;;7.00;99.90;;;;;;4988657;28;20200;-87
2023/04/11 03:48:33;;;;;;;1.90;1.80;;;6.90;99.90;;;;;;4984402;28;20207;-86
2023/04/11 03:51:04;;;;;;;4.17;2.13;;;6.90;99.90;;;;;;4983872;28;20214;-87
2023/04/11 03:53:36;;;;;;;2.80;2.03;;;6.90;99.90;;;;;;4994476;28;20220;-86
2023/04/11 03:56:11;;;;;;;1.60;1.50;;;7.00;99.90;;;;;;5013320;28;20547;-86
2023/04/11 03:58:42;;;;;;;2.50;2.07;;;7.00;99.90;;;;;;5007329;28;20702;-87
2023/04/11 04:01:14;;;;;;;2.03;1.50;;;6.90;99.90;;;;;;5002980;28;20264;-87
2023/04/11 04:03:46;;;;;;;2.13;1.80;;;6.80;99.90;;;;;;5004940;28;20206;-87
2023/04/11 04:06:18;;;;;;;3.47;1.77;;;6.70;99.90;;;;;;4993964;28;20276;-87
2023/04/11 04:08:49;;;;;;;2.97;1.90;;;6.70;99.90;;;;;;4996684;28;20206;-87
2023/04/11 04:11:23;;;;;;;2.90;1.93;;;6.70;99.90;;;;;;4997562;28;20214;-87
2023/04/11 04:13:54;;;;;;;2.97;2.03;;;6.70;99.90;;;;;;5004356;28;20219;-87
2023/04/11 04:16:25;;;;;;;3.10;2.00;;;6.70;99.90;;;;;;4980094;28;20233;-87
2023/04/11 04:18:56;;;;;;;3.27;1.90;;;6.70;99.90;;;;;;4995560;28;20261;-86
2023/04/11 04:21:31;;;;;;;4.33;2.73;;;6.70;99.90;;;;;;4999327;28;20206;-86
2023/04/11 04:24:03;;;;;;;5.07;3.20;;;6.70;99.90;;;;;;4995562;28;20209;-86
2023/04/11 04:26:37;;;;;;;4.70;2.83;;;6.70;99.90;;;;;;4997853;28;20218;-87
2023/04/11 04:29:09;;;;;;;3.37;2.40;;;6.70;99.90;;;;;;4997454;28;20210;-86
2023/04/11 04:31:40;;;;;;;4.07;2.50;;;6.70;99.90;;;;;;4995091;28;20232;-88
2023/04/11 04:34:12;;;;;;;3.37;2.40;;;6.60;99.90;;;;;;5016723;28;20296;-87
2023/04/11 04:36:48;;;;;;;2.90;2.20;;;6.70;99.90;;;;;;5000914;28;20207;-88
2023/04/11 04:39:20;;;;;;;3.23;1.70;;;6.70;99.90;;;;;;4997630;28;20315;-88
2023/04/11 04:41:57;;;;;;;2.50;1.30;;;6.60;99.90;;;;;;4999879;28;20203;-87
2023/04/11 04:44:28;;;;;;;3.13;1.03;;;6.60;99.90;;;;;;4977894;28;20306;-88
2023/04/11 04:47:02;;;;;;;2.33;1.63;;;6.70;99.90;;;;;;4995929;28;20206;-87
2023/04/11 04:49:33;;;;;;;1.77;1.60;;;6.70;99.90;;;;;;5006351;28;20221;-87
2023/04/11 04:52:06;;;;;;;2.13;1.57;;;6.70;99.90;;;;;;4994773;28;20218;-86
2023/04/11 04:54:38;;;;;;;2.80;1.30;;;6.60;99.90;;;;;;4980461;28;20304;-86
2023/04/11 04:57:12;;;;;;;1.50;1.40;;;6.60;99.90;;;;;;4982037;28;20610;-86
2023/04/11 04:59:45;;;;;;;3.20;2.60;;;6.60;99.90;;;;;;4997990;28;20242;-87
2023/04/11 05:02:17;;;;;;;2.60;2.40;;;6.60;99.90;;;;;;4989218;28;20717;-88
2023/04/11 05:04:49;;;;;;;2.67;2.37;;;6.70;99.90;;;;;;4987146;28;20366;-87
2023/04/11 05:07:20;;;;;;;4.10;2.20;;;6.70;99.90;;;;;;4978305;28;20207;-87
2023/04/11 05:09:50;;;;;;;2.30;2.00;;;6.70;99.90;;;;;;4978315;28;20211;-87
2023/04/11 05:12:25;;;;;;;2.53;2.20;;;6.60;99.90;;;;;;4979934;28;20206;-88
2023/04/11 05:14:57;;;;;;;3.50;2.30;;;6.60;99.90;;;;;;4977818;28;20218;-87
2023/04/11 05:17:30;;;;;;;2.67;2.00;;;6.50;99.90;;;;;;4994254;28;20230;-87
2023/04/11 05:20:04;;;;;;;1.83;1.63;;;6.50;99.90;;;;;;4979214;28;20290;-86
2023/04/11 05:22:36;;;;;;;5.20;2.50;;;6.60;99.90;;;;;;4997563;28;20217;-87
2023/04/11 05:25:10;;;;;;;5.70;3.30;;;6.60;99.90;;;;;;4997022;28;20273;-88
2023/04/11 05:27:43;;;;;;;4.80;3.53;;;6.60;99.90;;;;;;4996457;28;21103;-87
2023/04/11 05:30:15;;;;;;;5.40;3.97;;;6.60;99.90;;;;;;4996191;28;20245;-87
2023/04/11 05:32:47;;;;;;;4.70;4.30;;;6.60;99.90;;;;;;4996040;28;20215;-87
2023/04/11 05:35:18;;;;;;;5.03;4.53;;;6.60;99.90;;;;;;5004813;28;20293;-87
2023/04/11 05:37:49;;;;;;;5.20;3.40;;;6.60;99.90;;;;;;4998533;28;20272;-87
2023/04/11 05:40:21;;;;;;;3.77;3.03;;;6.60;99.90;;;;;;4977530;28;20235;-87
2023/04/11 05:42:54;;;;;;;3.00;2.70;;;6.60;99.90;;;;;;4985663;28;20222;-86
2023/04/11 05:45:25;;;;;;;3.27;2.80;;;6.50;99.90;;;;;;4980211;28;20214;-86
2023/04/11 05:47:57;;;;;;;2.80;2.40;;;6.50;99.90;;;;;;5015296;28;20228;-86
2023/04/11 05:50:28;;;;;;;3.40;2.60;;;6.50;99.90;;;;;;5001772;28;20644;-87
2023/04/11 05:53:00;;;;;;;2.70;2.07;;;6.50;99.90;;;;;;4982758;28;20242;-88
2023/04/11 05:55:31;;;;;;;3.73;2.30;;;6.60;99.90;;;;;;5017422;28;20209;-87
2023/04/11 05:58:05;;;;;;;2.20;1.43;;;6.60;99.90;;;;;;4980547;28;20559;-87
2023/04/11 06:00:37;;;;;;;2.20;1.50;;;6.60;99.90;;;;;;4980611;28;20711;-88
2023/04/11 06:03:08;;;;;;;2.83;1.33;;;6.50;99.90;;;;;;4983325;28;20206;-87
2023/04/11 06:05:40;;;;;;;2.87;1.47;;;6.60;99.90;;;;;;4997195;28;20277;-87
2023/04/11 06:08:11;;;;;;;2.53;1.53;;;6.40;99.90;;;;;;4993793;28;20673;-87
2023/04/11 06:10:43;;;;;;;3.50;1.60;;;6.40;99.90;;;;;;4997980;28;20214;-87
2023/04/11 06:13:16;;;;;;;1.30;1.20;;;6.30;99.90;;;;;;4992861;28;20295;-88
2023/04/11 06:15:48;;;;;;;4.53;1.77;;;6.20;99.90;;;;;;4980217;28;20245;-87
2023/04/11 06:18:20;;;;;;;1.63;1.40;;;6.10;99.90;;;;;;4994453;28;20210;-88
2023/04/11 06:20:51;;;;;;;1.63;1.53;;;6.00;99.90;;;;;;4999469;28;20587;-88
2023/04/11 06:23:25;;;;;;;2.67;1.57;;;5.90;99.90;;;;;;4996032;28;20265;-88
2023/04/11 06:25:58;;;;;;;1.90;1.70;;;5.90;99.90;;;;;;4992810;28;20257;-89
2023/04/11 06:28:33;;;;;;;2.43;1.67;;;5.80;99.90;;;;;;4974721;28;20274;-88
2023/04/11 06:31:04;;;;;;;3.77;1.70;;;5.80;99.90;;;;;;4993029;28;20230;-88
2023/04/11 06:33:36;;;;;;;3.60;1.60;;;5.80;99.90;;;;;;4996227;28;20210;-87
2023/04/11 06:36:08;;;;;;;4.40;1.50;;;5.90;99.90;;;;;;4995212;28;20206;-86
2023/04/11 06:38:40;;;;;;;2.23;1.60;;;5.90;99.90;;;;;;4994775;28;20206;-88
2023/04/11 06:41:12;;;;;;;2.37;1.60;;;5.80;99.90;;;;;;4984716;28;20669;-87
2023/04/11 06:43:46;;;;;;;1.90;1.50;;;5.80;99.90;;;;;;4976423;28;20207;-87
2023/04/11 06:46:17;;;;;;;1.73;1.20;;;5.90;99.90;;;;;;4993599;28;20257;-87
2023/04/11 06:48:49;;;;;;;1.70;1.50;;;5.90;99.90;;;;;;4995143;28;20206;-87
2023/04/11 06:51:21;;;;;;;3.13;1.60;;;5.90;99.90;;;;;;4993469;28;20265;-87
2023/04/11 06:53:53;;;;;;;2.60;1.57;;;5.80;99.90;;;;;;4981210;28;20206;-88
2023/04/11 06:56:25;;;;;;;2.20;1.47;;;5.80;99.90;;;;;;5009652;28;20267;-87
2023/04/11 06:58:58;;;;;;;2.53;1.50;;;5.80;99.90;;;;;;4993331;28;20242;-85
2023/04/11 07:01:34;;;;;;;2.27;1.50;;;5.90;99.90;;;;;;4998063;28;20229;-87
2023/04/11 07:04:06;;;;;;;2.77;1.40;;;5.90;99.90;;;;;;5013629;28;20190;-87
2023/04/11 07:06:37;;;;;;;3.47;1.33;;;5.90;99.90;;;;;;5016868;28;20286;-87
2023/04/11 07:09:11;;;;;;;1.53;1.43;;;5.80;99.90;;;;;;5013746;28;20700;-87
2023/04/11 07:11:43;;;;;;;4.00;1.60;;;5.80;99.90;;;;;;4995296;28;20207;-88
2023/04/11 07:14:16;;;;;;;1.90;1.27;;;5.80;99.90;;;;;;4992928;28;20214;-87
2023/04/11 07:16:47;;;;;;;2.03;1.20;;;5.80;99.90;;;;;;4996104;28;20226;-88
2023/04/11 07:19:19;;;;;;;3.07;1.57;;;5.70;99.90;;;;;;4989179;28;20206;-88
2023/04/11 07:21:51;;;;;;;3.03;1.67;;;5.70;99.90;;;;;;4982910;28;20313;-87
2023/04/11 07:24:23;;;;;;;1.87;1.57;;;5.70;99.90;;;;;;4995731;28;20685;-86
2023/04/11 07:26:57;;;;;;;3.50;1.50;;;5.70;99.90;;;;;;5000253;28;20209;-86
2023/04/11 07:29:30;;;;;;;1.67;1.37;;;5.70;99.90;;;;;;4990310;28;20669;-87
2023/04/11 07:32:02;;;;;;;1.80;1.30;;;5.70;99.90;;;;;;5010706;28;20209;-87
2023/04/11 07:34:34;;;;;;;2.17;1.30;;;5.70;99.90;;;;;;4993346;28;20210;-87
2023/04/11 07:37:05;;;;;;;4.73;1.50;;;5.60;99.90;;;;;;4990804;28;20622;-89
2023/04/11 07:39:36;;;;;;;2.80;1.57;;;5.60;99.90;;;;;;4975327;28;20207;-89
2023/04/11 07:42:07;;;;;;;3.80;1.47;;;5.50;99.90;;;;;;4982647;28;20234;-87
2023/04/11 07:44:41;;;;;;;1.67;1.40;;;5.50;99.90;;;;;;4978595;28;20219;-88
2023/04/11 07:47:13;;;;;;;2.20;2.00;;;5.60;99.90;;;;;;4986087;28;20210;-87
2023/04/11 07:49:44;;;;;;;4.37;1.83;;;5.60;99.90;;;;;;4986197;28;20207;-86
2023/04/11 07:52:16;;;;;;;1.83;1.43;;;5.50;99.90;;;;;;4994107;28;20213;-92
2023/04/11 07:54:47;;;;;;;5.17;1.80;;;5.50;99.90;;;;;;4993943;28;20215;-88
2023/04/11 07:57:19;;;;;;;2.50;1.80;;;5.60;99.90;;;;;;4981444;28;20214;-87
2023/04/11 07:59:51;;;;;;;4.27;1.77;;;5.60;99.90;;;;;;4995038;28;20218;-87
2023/04/11 08:02:23;;;;;;;3.43;2.10;;;5.50;99.90;;;;;;4994471;28;20292;-88
2023/04/11 08:04:55;;;;;;;4.77;1.80;;;5.50;99.90;;;;;;4995057;28;20210;-87
2023/04/11 08:07:30;;;;;;;2.63;2.00;;;5.50;99.90;;;;;;4994649;28;20659;-88
2023/04/11 08:10:02;;;;;;;1.60;1.50;;;5.50;99.90;;;;;;4995258;28;20202;-87
2023/04/11 08:12:33;;;;;;;2.60;1.70;;;5.50;99.90;;;;;;4985549;28;20672;-89
2023/04/11 08:15:08;;;;;;;4.17;1.40;;;5.40;99.90;;;;;;4993641;28;20210;-89
2023/04/11 08:17:40;;;;;;;3.80;1.70;;;5.50;99.90;;;;;;4993978;28;20651;-89
2023/04/11 08:20:12;;;;;;;1.60;1.50;;;5.50;99.90;;;;;;4994144;28;20213;-88
2023/04/11 08:22:45;;;;;;;3.23;2.10;;;5.50;99.90;;;;;;4994147;28;20245;-88
2023/04/11 08:25:18;;;;;;;4.63;2.03;;;5.50;99.90;;;;;;4994113;28;20827;-88
2023/04/11 08:27:51;;;;;;;4.07;2.30;;;5.50;99.90;;;;;;4992779;28;20265;-87
2023/04/11 08:30:26;;;;;;;2.90;1.90;;;5.50;99.90;;;;;;4993920;28;20214;-86
2023/04/11 08:32:57;;;;;;;4.87;2.47;;;5.50;99.90;;;;;;4990236;28;20257;-88
2023/04/11 08:35:29;;;;;;;2.50;2.00;;;5.50;99.90;;;;;;5005400;28;20650;-89
2023/04/11 08:38:00;;;;;;;2.37;2.00;;;5.50;99.90;;;;;;4995959;28;20309;-88
2023/04/11 08:40:32;;;;;;;3.27;2.20;;;5.50;99.90;;;;;;4989648;28;20238;-87
2023/04/11 08:43:08;;;;;;;4.77;2.63;;;5.50;99.90;;;;;;4988890;28;20218;-88
2023/04/11 08:45:44;;;;;;;5.70;2.50;;;5.50;99.90;;;;;;4975067;28;20269;-87
2023/04/11 08:48:15;;;;;;;3.53;2.67;;;5.50;99.90;;;;;;4991606;28;20210;-89
2023/04/11 08:50:47;;;;;;;5.67;2.83;;;5.50;99.90;;;;;;4994769;28;20240;-89
2023/04/11 08:53:23;;;;;;;4.37;2.53;;;5.40;99.90;;;;;;4987174;28;20881;-88
2023/04/11 08:55:56;;;;;;;6.00;3.10;;;5.40;99.90;;;;;;4974595;28;20219;-87
2023/04/11 08:58:27;;;;;;;5.57;3.20;;;5.50;99.90;;;;;;4989002;28;20207;-88
2023/04/11 09:01:22;;;;;;;6.17;3.20;;;5.50;99.90;;;;;;4998238;28;20211;-89
2023/04/11 09:03:54;;;;;;;6.23;3.80;;;5.40;99.90;;;;;;4994113;28;20214;-88
2023/04/11 09:06:29;;;;;;;5.97;3.63;;;5.50;99.90;;;;;;4997597;28;20211;-87
2023/04/11 09:09:03;;;;;;;5.47;3.30;;;5.40;99.90;;;;;;4997121;28;20190;-88
2023/04/11 09:11:53;;;;;;;3.87;2.83;;;5.40;99.90;;;;;;5005105;28;20615;-88
2023/04/11 09:14:27;;;;;;;5.03;3.00;;;5.40;99.90;;;;;;4987421;28;20696;-88
2023/04/11 09:17:03;;;;;;;5.77;3.20;;;5.40;99.90;;;;;;4987086;28;20214;-86
2023/04/11 09:19:36;;;;;;;3.73;3.00;;;5.40;99.90;;;;;;4997298;28;20202;-88
2023/04/11 09:22:09;;;;;;;4.10;3.20;;;5.40;99.90;;;;;;4996379;28;20269;-88
2023/04/11 09:24:41;;;;;;;7.80;3.10;;;5.40;99.90;;;;;;4997301;28;20214;-87
2023/04/11 09:27:14;;;;;;;4.10;3.00;;;5.40;99.90;;;;;;4977689;28;20277;-86
2023/04/11 09:29:48;;;;;;;3.60;2.37;;;5.40;99.90;;;;;;4977083;28;20215;-88
2023/04/11 09:32:32;;;;;;;4.77;2.27;;;5.40;99.90;;;;;;4977744;28;20210;-87
2023/04/11 09:35:14;;;;;;;4.03;1.87;;;5.40;99.90;;;;;;4977924;28;20210;-90
2023/04/11 09:37:47;;;;;;;3.43;1.93;;;5.30;99.90;;;;;;4982363;28;21084;-88
2023/04/11 09:40:21;;;;;;;2.87;1.93;;;5.30;99.90;;;;;;4998071;28;20478;-89
2023/04/11 09:42:59;;;;;;;2.03;1.60;;;5.20;99.90;;;;;;4997830;28;20256;-89
2023/04/11 09:45:31;;;;;;;4.50;1.90;;;5.20;99.90;;;;;;4998261;28;20218;-88
2023/04/11 09:48:19;;;;;;;5.07;2.20;;;5.20;99.90;;;;;;4996107;28;20218;-89
2023/04/11 09:51:06;;;;;;;3.70;1.80;;;5.20;99.90;;;;;;4997136;28;20305;-88
2023/04/11 09:53:37;;;;;;;5.20;1.80;;;5.20;99.90;;;;;;4997539;28;20210;-89
2023/04/11 09:56:10;;;;;;;2.33;1.97;;;5.10;99.90;;;;;;4988499;28;20210;-88
2023/04/11 09:58:42;;;;;;;2.90;1.90;;;5.10;99.90;;;;;;4977025;28;20270;-88
2023/04/11 10:01:15;;;;;;;3.93;2.07;;;5.10;99.90;;;;;;4977703;28;20621;-89
2023/04/11 10:03:49;;;;;;;6.03;2.00;;;5.10;99.90;;;;;;4976497;28;20279;-90
2023/04/11 10:06:30;;;;;;;4.10;2.00;;;5.00;99.90;;;;;;4989285;28;20216;-90
2023/04/11 10:09:08;;;;;;;2.53;1.70;;;5.00;99.90;;;;;;4994961;28;20206;-89
2023/04/11 10:11:43;;;;;;;3.80;1.90;;;5.00;99.90;;;;;;4996802;28;20220;-89
2023/04/11 10:14:45;;;;;;;2.60;1.70;;;4.90;99.90;;;;;;5007667;28;20212;-89
2023/04/11 10:17:18;;;;;;;4.83;1.97;;;4.90;99.90;;;;;;4991649;28;20689;-89
2023/04/11 10:19:56;;;;;;;3.87;1.80;;;4.90;99.90;;;;;;4977507;28;20253;-88
2023/04/11 10:22:59;;;;;;;5.33;2.17;;;5.00;99.90;;;;;;4979878;28;20238;-87
2023/04/11 10:25:30;;;;;;;2.80;1.60;;;5.00;99.90;;;;;;4976361;28;20214;-89
2023/04/11 10:28:03;;;;;;;5.57;1.80;;;4.90;99.90;;;;;;4975925;28;20210;-89
2023/04/11 10:31:05;;;;;;;3.07;1.57;;;5.00;99.90;;;;;;4982545;28;20346;-88
2023/04/11 10:33:38;;;;;;;2.60;1.90;;;5.00;99.90;;;;;;4916778;29;20232;-89
2023/04/11 10:36:11;;;;;;;3.20;1.67;;;4.90;99.90;;;;;;4984312;28;20206;-90
2023/04/11 10:38:50;;;;;;;1.30;1.20;;;4.90;99.90;;;;;;5012411;28;20265;-89
2023/04/11 10:41:32;;;;;;;2.20;1.70;;;4.90;99.90;;;;;;4993958;28;20722;-89
2023/04/11 10:44:17;;;;;;;2.53;1.63;;;4.90;99.90;;;;;;5000517;28;20571;-87
2023/04/11 10:46:53;;;;;;;3.20;1.77;;;4.90;99.90;;;;;;5013613;28;20236;-90
2023/04/11 10:49:36;;;;;;;2.23;1.80;;;4.80;99.90;;;;;;4999642;28;20396;-89
2023/04/11 10:52:26;;;;;;;3.37;1.97;;;4.80;99.90;;;;;;4976829;28;20217;-90
2023/04/11 10:55:15;;;;;;;5.50;1.80;;;4.80;99.90;;;;;;4976372;28;20262;-89
2023/04/11 10:58:06;;;;;;;2.40;1.90;;;4.80;99.90;;;;;;4975563;28;20680;-88
2023/04/11 11:01:14;;;;;;;4.93;1.93;;;4.80;99.90;;;;;;4981812;28;20251;-89
2023/04/11 11:04:06;;;;;;;2.90;1.70;;;4.70;99.90;;;;;;4977531;28;20231;-90
2023/04/11 11:06:38;;;;;;;2.60;1.53;;;4.70;99.90;;;;;;4976862;28;20211;-88
2023/04/11 11:09:27;;;;;;;3.63;2.03;;;4.70;99.90;;;;;;4983855;28;20210;-88
2023/04/11 11:12:09;;;;;;;5.33;2.23;;;4.70;99.90;;;;;;4994849;28;20248;-88
2023/04/11 11:14:42;;;;;;;4.07;2.13;;;4.60;99.90;;;;;;5015535;28;20209;-90
2023/04/11 11:17:14;;;;;;;3.40;1.90;;;4.60;99.90;;;;;;4990379;28;20211;-89
2023/04/11 11:19:46;;;;;;;6.00;2.20;;;4.60;99.90;;;;;;4986350;28;20203;-89
2023/04/11 11:22:24;;;;;;;4.73;1.87;;;4.50;99.90;;;;;;4995433;28;20226;-90
2023/04/11 11:25:08;;;;;;;2.33;1.93;;;4.50;99.90;;;;;;4994455;28;20261;-90
2023/04/11 11:27:40;;;;;;;2.53;1.90;;;4.60;99.90;;;;;;4994748;28;20202;-90
2023/04/11 11:30:15;;;;;;;4.37;1.90;;;4.60;99.90;;;;;;4994347;28;20237;-88
2023/04/11 11:32:47;;;;;;;2.60;1.83;;;4.60;99.90;;;;;;4995126;28;20214;-91
2023/04/11 11:35:18;;;;;;;2.90;2.40;;;4.60;99.90;;;;;;4999245;28;20202;-90
2023/04/11 11:37:51;;;;;;;4.63;1.87;;;4.60;99.90;;;;;;5007017;28;20655;-90
2023/04/11 11:40:25;;;;;;;3.80;1.73;;;4.60;99.90;;;;;;4995964;28;20260;-89
2023/04/11 11:42:57;;;;;;;2.87;1.80;;;4.60;99.90;;;;;;4994469;28;20233;-88
2023/04/11 11:45:28;;;;;;;6.23;1.93;;;4.60;99.90;;;;;;4995180;28;20214;-90
2023/04/11 11:48:00;;;;;;;2.50;1.50;;;4.60;99.90;;;;;;4994237;28;20209;-90
2023/04/11 11:50:33;;;;;;;4.20;2.00;;;4.60;99.90;;;;;;4994960;28;20211;-90
2023/04/11 11:53:14;;;;;;;4.77;1.77;;;4.50;99.90;;;;;;4995988;28;20218;-89
2023/04/11 11:55:48;;;;;;;2.27;1.50;;;4.50;99.90;;;;;;4995529;28;20206;-90
2023/04/11 11:58:19;;;;;;;3.23;1.60;;;4.60;99.90;;;;;;4993678;28;20210;-89
2023/04/11 12:00:53;;;;;;;2.30;1.20;;;4.60;99.90;;;;;;4995351;28;20221;-89
2023/04/11 12:03:28;;;;;;;2.90;1.57;;;4.60;99.90;;;;;;4975251;28;20243;-89
2023/04/11 12:06:00;;;;;;;3.23;1.40;;;4.50;99.90;;;;;;4997716;28;20214;-89
2023/04/11 12:08:35;;;;;;;6.60;1.50;;;4.60;99.90;;;;;;4974026;28;20660;-88
2023/04/11 12:11:14;;;;;;;2.70;1.70;;;4.60;99.90;;;;;;4976093;28;20644;-88
2023/04/11 12:13:46;;;;;;;2.80;1.50;;;4.60;99.90;;;;;;4976381;28;20654;-90
2023/04/11 12:16:22;;;;;;;2.50;1.33;;;4.60;99.90;;;;;;4978046;28;20207;-89
2023/04/11 12:18:54;;;;;;;3.40;1.53;;;4.70;99.90;;;;;;4988252;28;20217;-88
2023/04/11 12:21:25;;;;;;;4.13;1.50;;;4.70;99.90;;;;;;4994861;28;20215;-88
2023/04/11 12:23:56;;;;;;;1.40;1.13;;;4.70;99.90;;;;;;4994787;28;20292;-88
2023/04/11 12:26:31;;;;;;;2.80;1.50;;;4.70;99.90;;;;;;4979052;28;20215;-88
2023/04/11 12:29:06;;;;;;;3.77;1.60;;;4.70;99.90;;;;;;4993429;28;20216;-89
2023/04/11 12:31:37;;;;;;;3.03;1.57;;;4.80;99.90;;;;;;4995364;28;20209;-88
2023/04/11 12:34:09;;;;;;;3.77;1.40;;;4.80;99.90;;;;;;4994169;28;20214;-88
2023/04/11 12:36:40;;;;;;;1.90;1.13;;;4.80;99.90;;;;;;4994349;28;20206;-88
2023/04/11 12:39:11;;;;;;;1.37;1.17;;;4.80;99.90;;;;;;4994027;28;20214;-89
2023/04/11 12:41:45;;;;;;;3.40;1.30;;;4.80;99.90;;;;;;4998423;28;20264;-89
2023/04/11 12:44:16;;;;;;;1.33;0.93;;;4.90;99.90;;;;;;4998882;28;20721;-89
2023/04/11 12:46:47;;;;;;;1.50;1.17;;;4.90;99.90;;;;;;5012928;28;20206;-89
2023/04/11 12:49:18;;;;;;;4.03;1.23;;;4.90;99.90;;;;;;5024192;28;20622;-88
2023/04/11 12:51:49;;;;;;;1.23;1.10;;;4.90;99.90;;;;;;5027106;28;20220;-89
2023/04/11 12:54:21;;;;;;;3.50;1.10;;;4.90;99.90;;;;;;5034907;28;20194;-88
2023/04/11 12:56:57;;;;;;;5.93;1.40;;;4.90;99.90;;;;;;5020638;28;20229;-88
2023/04/11 12:59:28;;;;;;;2.97;1.33;;;4.90;99.90;;;;;;5016910;28;20203;-90
2023/04/11 13:02:01;;;;;;;3.67;1.30;;;4.90;99.90;;;;;;5007451;28;20225;-87
2023/04/11 13:04:33;;;;;;;1.90;1.10;;;4.90;99.90;;;;;;4999281;28;20261;-87
2023/04/11 13:07:05;;;;;;;5.67;1.50;;;4.90;99.90;;;;;;4993356;28;20614;-87
2023/04/11 13:09:36;;;;;;;3.50;1.13;;;4.90;99.90;;;;;;4984762;28;20207;-88
2023/04/11 13:12:10;;;;;;;7.40;1.43;;;4.90;99.90;;;;;;4993580;28;20211;-89
2023/04/11 13:14:41;;;;;;;4.53;1.27;;;4.90;99.90;;;;;;4997856;28;20213;-88
2023/04/11 13:17:14;;;;;;;3.03;1.00;;;4.90;99.90;;;;;;4987645;28;20262;-87
2023/04/11 13:19:45;;;;;;;1.93;1.10;;;4.90;99.90;;;;;;4977498;28;20219;-88
2023/04/11 13:22:16;;;;;;;2.30;1.10;;;4.90;99.90;;;;;;4978634;28;20574;-88
2023/04/11 13:24:48;;;;;;;4.10;1.10;;;4.90;99.90;;;;;;4975964;28;20321;-89
2023/04/11 13:27:21;;;;;;;2.17;1.00;;;4.90;99.90;;;;;;4992085;28;20199;-89
2023/04/11 13:29:52;;;;;;;2.43;1.20;;;5.00;99.90;;;;;;4980413;28;20211;-88
2023/04/11 13:32:23;;;;;;;2.40;1.00;;;4.90;99.90;;;;;;4980567;28;20215;-89